sensor_id;sensor_type;location;lat;lon;timestamp;pressure;altitude;pressure_sealevel;temperature;humidity
56604;BME280;42486;47.478;19.036;2023-04-29T00:00:40;100144.31;;;10.48;100.00
56604;BME280;42486;47.478;19.036;2023-04-29T00:03:44;100137.06;;;10.52;100.00
56604;BME280;42486;47.478;19.036;2023-04-29T00:06:48;100133.50;;;10.53;100.00
56604;BME280;42486;47.478;19.036;2023-04-29T00:09:52;100133.88;;;10.60;100.00
56604;BME280;42486;47.478;19.036;2023-04-29T00:12:56;100131.72;;;10.53;100.00
56604;BME280;42486;47.478;19.036;2023-04-29T00:16:02;100130.06;;;10.52;100.00
56604;BME280;42486;47.478;19.036;2023-04-29T00:19:08;100131.13;;;10.50;100.00
56604;BME280;42486;47.478;19.036;2023-04-29T00:22:18;100126.72;;;10.50;100.00
56604;BME280;42486;47.478;19.036;2023-04-29T00:25:28;100126.59;;;10.63;100.00
56604;BME280;42486;47.478;19.036;2023-04-29T00:28:34;100118.41;;;10.68;100.00
56604;BME280;42486;47.478;19.036;2023-04-29T00:31:40;100127.81;;;10.70;100.00
56604;BME280;42486;47.478;19.036;2023-04-29T00:34:44;100109.62;;;10.69;100.00
56604;BME280;42486;47.478;19.036;2023-04-29T00:37:49;100118.19;;;10.71;100.00
56604;BME280;42486;47.478;19.036;2023-04-29T00:40:55;100123.88;;;10.65;100.00
56604;BME280;42486;47.478;19.036;2023-04-29T00:43:59;100126.50;;;10.65;100.00
56604;BME280;42486;47.478;19.036;2023-04-29T00:47:07;100127.44;;;10.64;100.00
56604;BME280;42486;47.478;19.036;2023-04-29T00:50:20;100132.22;;;10.58;100.00
56604;BME280;42486;47.478;19.036;2023-04-29T00:53:29;100142.03;;;10.55;100.00
56604;BME280;42486;47.478;19.036;2023-04-29T00:56:48;100136.13;;;10.64;100.00
56604;BME280;42486;47.478;19.036;2023-04-29T00:59:54;100131.25;;;10.71;100.00
56604;BME280;42486;47.478;19.036;2023-04-29T01:03:00;100131.72;;;10.65;100.00
56604;BME280;42486;47.478;19.036;2023-04-29T01:09:44;100132.69;;;10.75;100.00
56604;BME280;42486;47.478;19.036;2023-04-29T01:16:17;100131.72;;;10.76;100.00
56604;BME280;42486;47.478;19.036;2023-04-29T01:22:48;100138.84;;;10.74;100.00
56604;BME280;42486;47.478;19.036;2023-04-29T01:25:52;100128.53;;;10.72;100.00
56604;BME280;42486;47.478;19.036;2023-04-29T01:29:01;100130.91;;;10.64;100.00
56604;BME280;42486;47.478;19.036;2023-04-29T01:32:17;100132.78;;;10.51;100.00
56604;BME280;42486;47.478;19.036;2023-04-29T01:38:36;100125.31;;;10.35;100.00
56604;BME280;42486;47.478;19.036;2023-04-29T01:41:42;100123.62;;;10.34;100.00
56604;BME280;42486;47.478;19.036;2023-04-29T01:44:52;100120.09;;;10.35;100.00
56604;BME280;42486;47.478;19.036;2023-04-29T01:48:04;100124.34;;;10.36;100.00
56604;BME280;42486;47.478;19.036;2023-04-29T01:51:14;100123.03;;;10.30;100.00
56604;BME280;42486;47.478;19.036;2023-04-29T01:54:17;100118.06;;;10.27;100.00
56604;BME280;42486;47.478;19.036;2023-04-29T01:57:19;100110.28;;;10.26;100.00
56604;BME280;42486;47.478;19.036;2023-04-29T02:00:22;100116.25;;;10.28;100.00
56604;BME280;42486;47.478;19.036;2023-04-29T02:03:26;100124.81;;;10.30;100.00
56604;BME280;42486;47.478;19.036;2023-04-29T02:06:30;100126.22;;;10.34;100.00
56604;BME280;42486;47.478;19.036;2023-04-29T02:09:40;100121.63;;;10.38;100.00
56604;BME280;42486;47.478;19.036;2023-04-29T02:12:52;100117.56;;;10.45;100.00
56604;BME280;42486;47.478;19.036;2023-04-29T02:15:56;100118.19;;;10.48;100.00
56604;BME280;42486;47.478;19.036;2023-04-29T02:19:03;100127.09;;;10.57;100.00
56604;BME280;42486;47.478;19.036;2023-04-29T02:22:12;100123.88;;;10.65;100.00
56604;BME280;42486;47.478;19.036;2023-04-29T02:25:19;100124.94;;;10.73;96.43
56604;BME280;42486;47.478;19.036;2023-04-29T02:28:25;100125.44;;;10.78;85.18
56604;BME280;42486;47.478;19.036;2023-04-29T02:31:31;100129.94;;;10.88;89.52
56604;BME280;42486;47.478;19.036;2023-04-29T02:34:42;100123.41;;;10.93;83.81
56604;BME280;42486;47.478;19.036;2023-04-29T02:37:47;100115.41;;;10.95;90.23
56604;BME280;42486;47.478;19.036;2023-04-29T02:40:52;100114.59;;;10.94;89.10
56604;BME280;42486;47.478;19.036;2023-04-29T02:43:58;100117.78;;;10.98;89.37
56604;BME280;42486;47.478;19.036;2023-04-29T02:47:16;100115.06;;;10.99;92.00
56604;BME280;42486;47.478;19.036;2023-04-29T02:50:26;100110.56;;;11.01;82.69
56604;BME280;42486;47.478;19.036;2023-04-29T02:53:37;100103.66;;;11.12;87.55
56604;BME280;42486;47.478;19.036;2023-04-29T02:57:02;100105.75;;;11.18;80.17
56604;BME280;42486;47.478;19.036;2023-04-29T03:00:07;100104.78;;;11.19;82.06
56604;BME280;42486;47.478;19.036;2023-04-29T03:03:12;100109.09;;;11.20;78.24
56604;BME280;42486;47.478;19.036;2023-04-29T03:06:20;100111.72;;;11.20;80.69
56604;BME280;42486;47.478;19.036;2023-04-29T03:09:32;100101.72;;;11.14;82.31
56604;BME280;42486;47.478;19.036;2023-04-29T03:12:54;100113.97;;;11.13;80.88
56604;BME280;42486;47.478;19.036;2023-04-29T03:16:01;100103.59;;;11.23;84.15
56604;BME280;42486;47.478;19.036;2023-04-29T03:19:07;100104.94;;;11.17;82.12
56604;BME280;42486;47.478;19.036;2023-04-29T03:22:19;100106.00;;;11.15;79.70
56604;BME280;42486;47.478;19.036;2023-04-29T03:25:22;100108.22;;;11.19;80.46
56604;BME280;42486;47.478;19.036;2023-04-29T03:28:26;100102.69;;;11.13;74.92
56604;BME280;42486;47.478;19.036;2023-04-29T03:31:34;100102.19;;;11.19;72.45
56604;BME280;42486;47.478;19.036;2023-04-29T03:34:40;100111.31;;;11.24;75.54
56604;BME280;42486;47.478;19.036;2023-04-29T03:37:51;100111.31;;;11.24;74.25
56604;BME280;42486;47.478;19.036;2023-04-29T03:40:59;100113.56;;;11.29;77.50
56604;BME280;42486;47.478;19.036;2023-04-29T03:44:07;100108.84;;;11.23;72.37
56604;BME280;42486;47.478;19.036;2023-04-29T03:47:12;100110.50;;;11.24;73.95
56604;BME280;42486;47.478;19.036;2023-04-29T03:50:17;100116.06;;;11.19;80.42
56604;BME280;42486;47.478;19.036;2023-04-29T03:53:21;100115.97;;;11.21;78.88
56604;BME280;42486;47.478;19.036;2023-04-29T03:56:26;100123.25;;;11.17;79.38
56604;BME280;42486;47.478;19.036;2023-04-29T03:59:32;100131.78;;;11.19;82.22
56604;BME280;42486;47.478;19.036;2023-04-29T04:02:37;100134.38;;;11.19;82.46
56604;BME280;42486;47.478;19.036;2023-04-29T04:05:43;100138.78;;;11.19;79.03
56604;BME280;42486;47.478;19.036;2023-04-29T04:08:52;100136.31;;;11.17;83.45
56604;BME280;42486;47.478;19.036;2023-04-29T04:11:57;100147.72;;;11.16;84.21
56604;BME280;42486;47.478;19.036;2023-04-29T04:15:08;100139.75;;;11.18;81.89
56604;BME280;42486;47.478;19.036;2023-04-29T04:18:14;100140.94;;;11.14;82.78
56604;BME280;42486;47.478;19.036;2023-04-29T04:21:20;100144.16;;;11.06;84.02
56604;BME280;42486;47.478;19.036;2023-04-29T04:24:27;100145.47;;;11.00;81.64
56604;BME280;42486;47.478;19.036;2023-04-29T04:27:31;100146.78;;;10.95;84.84
56604;BME280;42486;47.478;19.036;2023-04-29T04:30:34;100147.75;;;10.94;81.78
56604;BME280;42486;47.478;19.036;2023-04-29T04:33:41;100146.06;;;10.93;81.89
56604;BME280;42486;47.478;19.036;2023-04-29T04:36:48;100145.00;;;10.95;87.47
56604;BME280;42486;47.478;19.036;2023-04-29T04:39:52;100152.63;;;10.98;81.85
56604;BME280;42486;47.478;19.036;2023-04-29T04:43:18;100145.59;;;10.99;81.62
56604;BME280;42486;47.478;19.036;2023-04-29T04:46:26;100149.75;;;11.01;81.82
56604;BME280;42486;47.478;19.036;2023-04-29T04:49:33;100137.84;;;11.09;80.37
56604;BME280;42486;47.478;19.036;2023-04-29T04:52:39;100139.41;;;11.22;81.82
56604;BME280;42486;47.478;19.036;2023-04-29T04:55:44;100143.41;;;11.27;82.86
56604;BME280;42486;47.478;19.036;2023-04-29T04:58:48;100137.81;;;11.31;79.01
56604;BME280;42486;47.478;19.036;2023-04-29T05:01:51;100140.53;;;11.30;73.49
56604;BME280;42486;47.478;19.036;2023-04-29T05:04:56;100140.19;;;11.34;74.80
56604;BME280;42486;47.478;19.036;2023-04-29T05:08:01;100135.00;;;11.55;71.82
56604;BME280;42486;47.478;19.036;2023-04-29T05:11:05;100133.88;;;11.69;72.82
56604;BME280;42486;47.478;19.036;2023-04-29T05:14:12;100133.75;;;12.03;75.93
56604;BME280;42486;47.478;19.036;2023-04-29T05:17:32;100136.50;;;12.22;73.93
56604;BME280;42486;47.478;19.036;2023-04-29T05:20:47;100136.63;;;12.21;71.55
56604;BME280;42486;47.478;19.036;2023-04-29T05:23:56;100135.75;;;12.10;67.65
56604;BME280;42486;47.478;19.036;2023-04-29T05:26:59;100142.44;;;12.03;68.36
56604;BME280;42486;47.478;19.036;2023-04-29T05:30:03;100140.66;;;12.04;75.80
56604;BME280;42486;47.478;19.036;2023-04-29T05:33:10;100143.97;;;12.06;70.98
56604;BME280;42486;47.478;19.036;2023-04-29T05:36:17;100142.00;;;11.98;67.71
56604;BME280;42486;47.478;19.036;2023-04-29T05:39:23;100142.06;;;11.87;67.16
56604;BME280;42486;47.478;19.036;2023-04-29T05:42:27;100142.53;;;11.81;69.67
56604;BME280;42486;47.478;19.036;2023-04-29T05:45:30;100142.91;;;11.76;72.48
56604;BME280;42486;47.478;19.036;2023-04-29T05:48:35;100143.84;;;11.75;74.52
56604;BME280;42486;47.478;19.036;2023-04-29T05:51:39;100149.13;;;11.64;69.49
56604;BME280;42486;47.478;19.036;2023-04-29T05:54:45;100155.69;;;11.58;73.10
56604;BME280;42486;47.478;19.036;2023-04-29T05:57:49;100161.19;;;11.55;73.57
56604;BME280;42486;47.478;19.036;2023-04-29T06:00:53;100152.00;;;11.61;74.82
56604;BME280;42486;47.478;19.036;2023-04-29T06:03:56;100147.16;;;11.77;72.91
56604;BME280;42486;47.478;19.036;2023-04-29T06:07:01;100149.97;;;11.85;68.43
56604;BME280;42486;47.478;19.036;2023-04-29T06:10:06;100161.28;;;11.97;70.93
56604;BME280;42486;47.478;19.036;2023-04-29T06:13:10;100156.69;;;12.10;69.61
56604;BME280;42486;47.478;19.036;2023-04-29T06:16:14;100151.22;;;12.23;67.56
56604;BME280;42486;47.478;19.036;2023-04-29T06:19:19;100159.59;;;12.38;65.00
56604;BME280;42486;47.478;19.036;2023-04-29T06:22:22;100157.88;;;12.27;66.50
56604;BME280;42486;47.478;19.036;2023-04-29T06:25:27;100158.97;;;12.25;66.33
56604;BME280;42486;47.478;19.036;2023-04-29T06:28:34;100168.09;;;12.30;66.77
56604;BME280;42486;47.478;19.036;2023-04-29T06:31:38;100165.03;;;12.25;66.65
56604;BME280;42486;47.478;19.036;2023-04-29T06:34:41;100167.34;;;12.19;68.32
56604;BME280;42486;47.478;19.036;2023-04-29T06:37:44;100169.97;;;12.19;67.91
56604;BME280;42486;47.478;19.036;2023-04-29T06:40:48;100170.72;;;12.09;66.95
56604;BME280;42486;47.478;19.036;2023-04-29T06:43:51;100167.47;;;12.17;65.68
56604;BME280;42486;47.478;19.036;2023-04-29T06:46:56;100163.69;;;12.31;70.32
56604;BME280;42486;47.478;19.036;2023-04-29T06:49:59;100166.37;;;12.41;66.63
56604;BME280;42486;47.478;19.036;2023-04-29T06:53:04;100162.34;;;12.37;64.38
56604;BME280;42486;47.478;19.036;2023-04-29T06:56:08;100164.31;;;12.44;64.22
56604;BME280;42486;47.478;19.036;2023-04-29T06:59:12;100169.13;;;12.39;65.32
56604;BME280;42486;47.478;19.036;2023-04-29T07:02:17;100171.06;;;12.37;65.33
56604;BME280;42486;47.478;19.036;2023-04-29T07:05:22;100177.84;;;12.40;66.42
56604;BME280;42486;47.478;19.036;2023-04-29T07:08:27;100174.81;;;12.23;64.12
56604;BME280;42486;47.478;19.036;2023-04-29T07:11:31;100168.06;;;12.21;62.99
56604;BME280;42486;47.478;19.036;2023-04-29T07:14:34;100163.47;;;12.13;64.65
56604;BME280;42486;47.478;19.036;2023-04-29T07:17:39;100168.44;;;12.16;64.25
56604;BME280;42486;47.478;19.036;2023-04-29T07:20:44;100162.87;;;12.30;64.72
56604;BME280;42486;47.478;19.036;2023-04-29T07:23:53;100161.72;;;12.23;64.36
56604;BME280;42486;47.478;19.036;2023-04-29T07:26:57;100173.84;;;12.45;67.67
56604;BME280;42486;47.478;19.036;2023-04-29T07:30:00;100180.00;;;12.55;64.82
56604;BME280;42486;47.478;19.036;2023-04-29T07:33:09;100177.00;;;12.70;68.02
56604;BME280;42486;47.478;19.036;2023-04-29T07:36:13;100171.72;;;12.91;64.71
56604;BME280;42486;47.478;19.036;2023-04-29T07:39:16;100165.22;;;12.85;59.45
56604;BME280;42486;47.478;19.036;2023-04-29T07:42:20;100165.38;;;12.93;65.14
56604;BME280;42486;47.478;19.036;2023-04-29T07:45:23;100160.34;;;13.11;65.68
56604;BME280;42486;47.478;19.036;2023-04-29T07:48:26;100165.25;;;13.35;60.57
56604;BME280;42486;47.478;19.036;2023-04-29T07:51:30;100167.75;;;13.66;62.40
56604;BME280;42486;47.478;19.036;2023-04-29T07:54:33;100176.34;;;13.87;58.30
56604;BME280;42486;47.478;19.036;2023-04-29T07:57:36;100176.06;;;14.00;59.65
56604;BME280;42486;47.478;19.036;2023-04-29T08:00:41;100182.56;;;14.16;54.79
56604;BME280;42486;47.478;19.036;2023-04-29T08:03:51;100186.97;;;14.15;56.23
56604;BME280;42486;47.478;19.036;2023-04-29T08:06:58;100191.38;;;14.34;55.59
56604;BME280;42486;47.478;19.036;2023-04-29T08:10:05;100190.88;;;14.68;59.15
56604;BME280;42486;47.478;19.036;2023-04-29T08:13:12;100189.72;;;14.90;57.47
56604;BME280;42486;47.478;19.036;2023-04-29T08:16:16;100188.75;;;14.91;54.58
56604;BME280;42486;47.478;19.036;2023-04-29T08:19:19;100190.72;;;15.16;55.48
56604;BME280;42486;47.478;19.036;2023-04-29T08:22:22;100186.22;;;14.99;52.67
56604;BME280;42486;47.478;19.036;2023-04-29T08:25:25;100187.19;;;14.98;55.86
56604;BME280;42486;47.478;19.036;2023-04-29T08:28:29;100192.44;;;15.26;55.56
56604;BME280;42486;47.478;19.036;2023-04-29T08:31:33;100192.59;;;15.24;53.25
56604;BME280;42486;47.478;19.036;2023-04-29T08:34:37;100187.53;;;15.13;55.00
56604;BME280;42486;47.478;19.036;2023-04-29T08:37:43;100192.97;;;15.02;53.83
56604;BME280;42486;47.478;19.036;2023-04-29T08:40:45;100186.06;;;15.01;58.06
56604;BME280;42486;47.478;19.036;2023-04-29T08:43:48;100189.44;;;14.93;55.10
56604;BME280;42486;47.478;19.036;2023-04-29T08:46:50;100190.03;;;14.77;56.44
56604;BME280;42486;47.478;19.036;2023-04-29T08:49:53;100189.81;;;14.51;54.93
56604;BME280;42486;47.478;19.036;2023-04-29T08:52:56;100188.63;;;14.83;54.03
56604;BME280;42486;47.478;19.036;2023-04-29T08:56:02;100188.44;;;14.94;55.96
56604;BME280;42486;47.478;19.036;2023-04-29T08:59:08;100200.72;;;15.31;57.62
56604;BME280;42486;47.478;19.036;2023-04-29T09:02:11;100200.63;;;15.68;54.26
56604;BME280;42486;47.478;19.036;2023-04-29T09:05:16;100204.44;;;15.38;52.34
56604;BME280;42486;47.478;19.036;2023-04-29T09:08:24;100196.50;;;15.66;52.60
56604;BME280;42486;47.478;19.036;2023-04-29T09:11:31;100203.06;;;15.79;52.33
56604;BME280;42486;47.478;19.036;2023-04-29T09:14:35;100198.94;;;15.77;53.84
56604;BME280;42486;47.478;19.036;2023-04-29T09:20:41;100206.63;;;15.70;51.38
56604;BME280;42486;47.478;19.036;2023-04-29T09:23:46;100207.81;;;15.30;52.49
56604;BME280;42486;47.478;19.036;2023-04-29T09:26:49;100201.28;;;15.52;56.84
56604;BME280;42486;47.478;19.036;2023-04-29T09:29:59;100205.72;;;15.52;53.95
56604;BME280;42486;47.478;19.036;2023-04-29T09:36:13;100197.28;;;15.30;53.79
56604;BME280;42486;47.478;19.036;2023-04-29T09:39:24;100200.41;;;15.61;51.58
56604;BME280;42486;47.478;19.036;2023-04-29T09:42:29;100194.59;;;15.85;50.47
56604;BME280;42486;47.478;19.036;2023-04-29T09:45:37;100197.34;;;16.02;48.26
56604;BME280;42486;47.478;19.036;2023-04-29T09:48:43;100199.06;;;16.11;48.95
56604;BME280;42486;47.478;19.036;2023-04-29T09:51:56;100205.91;;;16.22;46.32
56604;BME280;42486;47.478;19.036;2023-04-29T09:55:03;100198.06;;;16.30;50.03
56604;BME280;42486;47.478;19.036;2023-04-29T09:58:07;100193.09;;;16.27;47.81
56604;BME280;42486;47.478;19.036;2023-04-29T10:01:30;100205.06;;;16.65;47.05
56604;BME280;42486;47.478;19.036;2023-04-29T10:04:34;100193.41;;;17.02;47.72
56604;BME280;42486;47.478;19.036;2023-04-29T10:07:41;100199.44;;;17.29;44.47
56604;BME280;42486;47.478;19.036;2023-04-29T10:10:48;100195.03;;;17.54;45.38
56604;BME280;42486;47.478;19.036;2023-04-29T10:13:59;100196.13;;;17.94;44.21
56604;BME280;42486;47.478;19.036;2023-04-29T10:17:09;100185.78;;;17.50;41.60
56604;BME280;42486;47.478;19.036;2023-04-29T10:20:13;100192.53;;;17.36;43.53
56604;BME280;42486;47.478;19.036;2023-04-29T10:23:18;100191.53;;;17.29;43.30
56604;BME280;42486;47.478;19.036;2023-04-29T10:26:25;100191.41;;;17.55;41.67
56604;BME280;42486;47.478;19.036;2023-04-29T10:29:28;100183.00;;;17.68;42.88
56604;BME280;42486;47.478;19.036;2023-04-29T10:32:33;100174.81;;;18.03;45.31
56604;BME280;42486;47.478;19.036;2023-04-29T10:35:52;100191.00;;;18.25;43.07
56604;BME280;42486;47.478;19.036;2023-04-29T10:39:01;100178.91;;;18.31;41.36
56604;BME280;42486;47.478;19.036;2023-04-29T10:42:05;100170.16;;;18.38;41.97
56604;BME280;42486;47.478;19.036;2023-04-29T10:48:24;100161.38;;;18.46;40.22
56604;BME280;42486;47.478;19.036;2023-04-29T10:51:29;100161.84;;;19.05;38.95
56604;BME280;42486;47.478;19.036;2023-04-29T10:54:38;100160.38;;;19.03;39.23
56604;BME280;42486;47.478;19.036;2023-04-29T10:57:44;100154.72;;;19.06;40.93
56604;BME280;42486;47.478;19.036;2023-04-29T11:00:49;100141.63;;;18.73;38.22
56604;BME280;42486;47.478;19.036;2023-04-29T11:03:55;100140.09;;;18.15;42.12
56604;BME280;42486;47.478;19.036;2023-04-29T11:07:01;100128.31;;;18.34;39.95
56604;BME280;42486;47.478;19.036;2023-04-29T11:10:06;100124.13;;;19.03;37.83
56604;BME280;42486;47.478;19.036;2023-04-29T11:13:26;100123.56;;;19.16;40.73
56604;BME280;42486;47.478;19.036;2023-04-29T11:16:31;100114.13;;;19.45;37.65
56604;BME280;42486;47.478;19.036;2023-04-29T11:19:42;100116.25;;;19.72;37.34
56604;BME280;42486;47.478;19.036;2023-04-29T11:22:49;100103.09;;;19.33;38.71
56604;BME280;42486;47.478;19.036;2023-04-29T11:25:53;100104.63;;;19.27;39.74
56604;BME280;42486;47.478;19.036;2023-04-29T11:28:56;100107.22;;;19.35;37.95
56604;BME280;42486;47.478;19.036;2023-04-29T11:32:01;100110.28;;;19.47;41.40
56604;BME280;42486;47.478;19.036;2023-04-29T11:35:11;100111.97;;;19.71;38.62
56604;BME280;42486;47.478;19.036;2023-04-29T11:38:15;100110.72;;;19.82;37.17
56604;BME280;42486;47.478;19.036;2023-04-29T11:41:19;100110.88;;;19.80;40.57
56604;BME280;42486;47.478;19.036;2023-04-29T11:44:23;100112.75;;;19.95;39.53
56604;BME280;42486;47.478;19.036;2023-04-29T11:47:27;100110.50;;;19.84;39.12
56604;BME280;42486;47.478;19.036;2023-04-29T11:50:31;100118.00;;;20.18;39.14
56604;BME280;42486;47.478;19.036;2023-04-29T11:53:35;100104.87;;;19.87;39.70
56604;BME280;42486;47.478;19.036;2023-04-29T11:56:38;100105.41;;;19.97;38.00
56604;BME280;42486;47.478;19.036;2023-04-29T11:59:42;100100.97;;;19.97;39.79
56604;BME280;42486;47.478;19.036;2023-04-29T12:02:45;100103.66;;;19.74;37.04
56604;BME280;42486;47.478;19.036;2023-04-29T12:05:50;100098.63;;;19.33;39.23
56604;BME280;42486;47.478;19.036;2023-04-29T12:08:53;100100.41;;;19.87;40.81
56604;BME280;42486;47.478;19.036;2023-04-29T12:11:56;100106.03;;;20.22;38.49
56604;BME280;42486;47.478;19.036;2023-04-29T12:14:59;100102.19;;;20.24;36.82
56604;BME280;42486;47.478;19.036;2023-04-29T12:18:02;100099.62;;;19.78;39.11
56604;BME280;42486;47.478;19.036;2023-04-29T12:21:05;100093.63;;;19.99;39.51
56604;BME280;42486;47.478;19.036;2023-04-29T12:24:12;100094.81;;;19.97;39.81
56604;BME280;42486;47.478;19.036;2023-04-29T12:27:17;100087.81;;;20.19;39.00
56604;BME280;42486;47.478;19.036;2023-04-29T12:30:20;100083.34;;;20.64;40.76
56604;BME280;42486;47.478;19.036;2023-04-29T12:33:28;100086.16;;;20.48;40.48
56604;BME280;42486;47.478;19.036;2023-04-29T12:36:33;100086.91;;;20.71;39.29
56604;BME280;42486;47.478;19.036;2023-04-29T12:39:36;100083.47;;;21.28;38.43
56604;BME280;42486;47.478;19.036;2023-04-29T12:42:39;100071.41;;;21.47;38.07
56604;BME280;42486;47.478;19.036;2023-04-29T12:45:42;100078.81;;;20.94;37.93
56604;BME280;42486;47.478;19.036;2023-04-29T12:48:45;100066.34;;;21.16;38.83
56604;BME280;42486;47.478;19.036;2023-04-29T12:51:49;100071.22;;;21.49;36.75
56604;BME280;42486;47.478;19.036;2023-04-29T12:54:52;100070.09;;;20.64;38.02
56604;BME280;42486;47.478;19.036;2023-04-29T12:57:56;100066.03;;;20.68;39.58
56604;BME280;42486;47.478;19.036;2023-04-29T13:01:01;100051.31;;;21.23;39.19
56604;BME280;42486;47.478;19.036;2023-04-29T13:04:05;100044.09;;;20.96;36.81
56604;BME280;42486;47.478;19.036;2023-04-29T13:07:10;100045.78;;;20.52;38.94
56604;BME280;42486;47.478;19.036;2023-04-29T13:10:14;100037.75;;;20.31;41.40
56604;BME280;42486;47.478;19.036;2023-04-29T13:13:17;100045.06;;;20.29;40.13
56604;BME280;42486;47.478;19.036;2023-04-29T13:16:20;100036.75;;;20.32;39.66
56604;BME280;42486;47.478;19.036;2023-04-29T13:19:23;100033.91;;;19.89;40.05
56604;BME280;42486;47.478;19.036;2023-04-29T13:22:46;100027.78;;;19.88;40.01
56604;BME280;42486;47.478;19.036;2023-04-29T13:25:50;100031.25;;;19.74;41.26
56604;BME280;42486;47.478;19.036;2023-04-29T13:28:53;100029.41;;;19.74;42.32
56604;BME280;42486;47.478;19.036;2023-04-29T13:31:55;100019.03;;;19.65;41.24
56604;BME280;42486;47.478;19.036;2023-04-29T13:34:58;100017.34;;;19.49;42.16
56604;BME280;42486;47.478;19.036;2023-04-29T13:38:03;100010.84;;;19.36;41.59
56604;BME280;42486;47.478;19.036;2023-04-29T13:41:06;100017.34;;;19.49;42.68
56604;BME280;42486;47.478;19.036;2023-04-29T13:44:18;100011.75;;;19.67;42.89
56604;BME280;42486;47.478;19.036;2023-04-29T13:47:33;100011.78;;;19.82;41.75
56604;BME280;42486;47.478;19.036;2023-04-29T13:50:57;100002.25;;;19.72;40.70
56604;BME280;42486;47.478;19.036;2023-04-29T13:54:04;100001.78;;;20.58;42.04
56604;BME280;42486;47.478;19.036;2023-04-29T13:57:10;99999.22;;;20.64;39.07
56604;BME280;42486;47.478;19.036;2023-04-29T14:00:15;100000.25;;;20.85;40.18
56604;BME280;42486;47.478;19.036;2023-04-29T14:03:39;99996.75;;;20.48;39.94
56604;BME280;42486;47.478;19.036;2023-04-29T14:06:42;100003.16;;;20.39;39.94
56604;BME280;42486;47.478;19.036;2023-04-29T14:09:46;100010.59;;;20.29;42.16
56604;BME280;42486;47.478;19.036;2023-04-29T14:12:50;100013.63;;;19.96;41.27
56604;BME280;42486;47.478;19.036;2023-04-29T14:15:53;100011.59;;;19.68;42.56
56604;BME280;42486;47.478;19.036;2023-04-29T14:18:58;100000.25;;;19.89;44.63
56604;BME280;42486;47.478;19.036;2023-04-29T14:22:04;99992.59;;;19.79;42.68
56604;BME280;42486;47.478;19.036;2023-04-29T14:25:07;99994.75;;;19.76;43.24
56604;BME280;42486;47.478;19.036;2023-04-29T14:28:16;99988.28;;;19.78;42.66
56604;BME280;42486;47.478;19.036;2023-04-29T14:31:19;99992.25;;;19.59;42.61
56604;BME280;42486;47.478;19.036;2023-04-29T14:34:22;99983.19;;;19.54;43.80
56604;BME280;42486;47.478;19.036;2023-04-29T14:37:25;99980.81;;;19.59;43.75
56604;BME280;42486;47.478;19.036;2023-04-29T14:40:28;99982.00;;;19.56;42.50
56604;BME280;42486;47.478;19.036;2023-04-29T14:43:32;99978.72;;;19.54;44.09
56604;BME280;42486;47.478;19.036;2023-04-29T14:46:36;99980.38;;;19.55;43.37
56604;BME280;42486;47.478;19.036;2023-04-29T14:49:39;99976.88;;;19.40;43.10
56604;BME280;42486;47.478;19.036;2023-04-29T14:52:45;99972.59;;;19.39;44.92
56604;BME280;42486;47.478;19.036;2023-04-29T14:55:48;99982.91;;;19.49;43.53
56604;BME280;42486;47.478;19.036;2023-04-29T14:58:51;99985.47;;;19.42;44.74
56604;BME280;42486;47.478;19.036;2023-04-29T15:01:55;99986.13;;;19.21;44.23
56604;BME280;42486;47.478;19.036;2023-04-29T15:04:58;99992.13;;;19.38;42.85
56604;BME280;42486;47.478;19.036;2023-04-29T15:08:01;99989.25;;;19.25;43.54
56604;BME280;42486;47.478;19.036;2023-04-29T15:11:05;99988.84;;;19.13;45.33
56604;BME280;42486;47.478;19.036;2023-04-29T15:14:08;99991.06;;;19.24;43.79
56604;BME280;42486;47.478;19.036;2023-04-29T15:17:12;99989.78;;;19.58;42.90
56604;BME280;42486;47.478;19.036;2023-04-29T15:20:16;99983.69;;;19.57;43.06
56604;BME280;42486;47.478;19.036;2023-04-29T15:23:19;99975.31;;;19.46;42.91
56604;BME280;42486;47.478;19.036;2023-04-29T15:26:24;99980.13;;;19.27;43.49
56604;BME280;42486;47.478;19.036;2023-04-29T15:29:29;99974.97;;;19.11;44.60
56604;BME280;42486;47.478;19.036;2023-04-29T15:32:35;99974.38;;;18.69;44.10
56604;BME280;42486;47.478;19.036;2023-04-29T15:35:40;99979.56;;;18.63;45.43
56604;BME280;42486;47.478;19.036;2023-04-29T15:38:43;99976.44;;;18.59;45.73
56604;BME280;42486;47.478;19.036;2023-04-29T15:41:47;99973.53;;;18.77;45.52
56604;BME280;42486;47.478;19.036;2023-04-29T15:44:50;99969.09;;;18.69;45.23
56604;BME280;42486;47.478;19.036;2023-04-29T15:47:54;99972.78;;;18.60;46.60
56604;BME280;42486;47.478;19.036;2023-04-29T15:50:58;99967.94;;;18.41;44.83
56604;BME280;42486;47.478;19.036;2023-04-29T15:54:01;99960.88;;;18.64;46.36
56604;BME280;42486;47.478;19.036;2023-04-29T15:57:07;99956.09;;;18.60;46.18
56604;BME280;42486;47.478;19.036;2023-04-29T16:00:10;99962.81;;;18.39;46.42
56604;BME280;42486;47.478;19.036;2023-04-29T16:03:14;99961.84;;;18.40;46.63
56604;BME280;42486;47.478;19.036;2023-04-29T16:06:16;99957.88;;;18.36;46.60
56604;BME280;42486;47.478;19.036;2023-04-29T16:09:20;99960.88;;;18.33;47.84
56604;BME280;42486;47.478;19.036;2023-04-29T16:12:23;99961.72;;;18.25;47.04
56604;BME280;42486;47.478;19.036;2023-04-29T16:15:26;99961.00;;;18.00;46.99
56604;BME280;42486;47.478;19.036;2023-04-29T16:18:31;99959.81;;;18.03;47.67
56604;BME280;42486;47.478;19.036;2023-04-29T16:21:34;99964.84;;;17.98;47.53